sensor_id;sensor_type;location;lat;lon;timestamp;P1;durP1;ratioP1;P2;durP2;ratioP2
17169;SDS011;8700;48.222;16.342;2023-06-22T00:00:10;13.18;;;8.50;;
17169;SDS011;8700;48.222;16.342;2023-06-22T00:03:33;13.98;;;8.93;;
17169;SDS011;8700;48.222;16.342;2023-06-22T00:06:55;11.40;;;9.18;;
17169;SDS011;8700;48.222;16.342;2023-06-22T00:10:16;11.07;;;7.55;;
17169;SDS011;8700;48.222;16.342;2023-06-22T00:13:38;22.50;;;8.70;;
17169;SDS011;8700;48.222;16.342;2023-06-22T00:16:59;11.77;;;8.70;;
17169;SDS011;8700;48.222;16.342;2023-06-22T00:20:22;11.98;;;8.05;;
17169;SDS011;8700;48.222;16.342;2023-06-22T00:23:47;9.77;;;7.80;;
17169;SDS011;8700;48.222;16.342;2023-06-22T00:27:08;9.57;;;7.70;;
17169;SDS011;8700;48.222;16.342;2023-06-22T00:30:30;8.68;;;7.40;;
17169;SDS011;8700;48.222;16.342;2023-06-22T00:33:52;10.23;;;7.60;;
17169;SDS011;8700;48.222;16.342;2023-06-22T00:37:14;12.50;;;7.75;;
17169;SDS011;8700;48.222;16.342;2023-06-22T00:40:36;8.68;;;7.78;;
17169;SDS011;8700;48.222;16.342;2023-06-22T00:43:59;7.80;;;7.00;;
17169;SDS011;8700;48.222;16.342;2023-06-22T00:47:20;8.95;;;6.95;;
17169;SDS011;8700;48.222;16.342;2023-06-22T00:50:42;8.52;;;7.50;;
17169;SDS011;8700;48.222;16.342;2023-06-22T00:54:07;10.80;;;6.95;;
17169;SDS011;8700;48.222;16.342;2023-06-22T00:57:28;10.77;;;8.13;;
17169;SDS011;8700;48.222;16.342;2023-06-22T01:00:50;11.55;;;7.57;;
17169;SDS011;8700;48.222;16.342;2023-06-22T01:04:12;11.02;;;8.23;;
17169;SDS011;8700;48.222;16.342;2023-06-22T01:07:34;10.55;;;8.40;;
17169;SDS011;8700;48.222;16.342;2023-06-22T01:11:05;11.00;;;7.80;;
17169;SDS011;8700;48.222;16.342;2023-06-22T01:14:33;11.70;;;7.82;;
17169;SDS011;8700;48.222;16.342;2023-06-22T01:18:00;10.40;;;7.93;;
17169;SDS011;8700;48.222;16.342;2023-06-22T01:21:24;9.27;;;7.78;;
17169;SDS011;8700;48.222;16.342;2023-06-22T01:24:51;8.95;;;8.05;;
17169;SDS011;8700;48.222;16.342;2023-06-22T01:28:23;12.93;;;8.10;;
17169;SDS011;8700;48.222;16.342;2023-06-22T01:31:56;13.63;;;8.43;;
17169;SDS011;8700;48.222;16.342;2023-06-22T01:35:18;11.63;;;8.18;;
17169;SDS011;8700;48.222;16.342;2023-06-22T01:38:41;9.65;;;7.90;;
17169;SDS011;8700;48.222;16.342;2023-06-22T01:42:03;11.85;;;7.93;;
17169;SDS011;8700;48.222;16.342;2023-06-22T01:45:27;7.93;;;7.13;;
17169;SDS011;8700;48.222;16.342;2023-06-22T01:48:49;11.52;;;6.88;;
17169;SDS011;8700;48.222;16.342;2023-06-22T01:52:12;9.73;;;7.68;;
17169;SDS011;8700;48.222;16.342;2023-06-22T01:55:33;14.77;;;8.52;;
17169;SDS011;8700;48.222;16.342;2023-06-22T01:58:57;10.00;;;7.88;;
17169;SDS011;8700;48.222;16.342;2023-06-22T02:02:24;15.02;;;8.70;;
17169;SDS011;8700;48.222;16.342;2023-06-22T02:05:50;9.65;;;8.18;;
17169;SDS011;8700;48.222;16.342;2023-06-22T02:09:16;9.98;;;7.72;;
17169;SDS011;8700;48.222;16.342;2023-06-22T02:12:39;9.48;;;7.75;;
17169;SDS011;8700;48.222;16.342;2023-06-22T02:16:02;11.57;;;7.60;;
17169;SDS011;8700;48.222;16.342;2023-06-22T02:19:28;11.90;;;8.57;;
17169;SDS011;8700;48.222;16.342;2023-06-22T02:22:52;11.43;;;8.55;;
17169;SDS011;8700;48.222;16.342;2023-06-22T02:26:15;11.75;;;8.43;;
17169;SDS011;8700;48.222;16.342;2023-06-22T02:29:37;9.25;;;8.35;;
17169;SDS011;8700;48.222;16.342;2023-06-22T02:32:58;8.02;;;6.88;;
17169;SDS011;8700;48.222;16.342;2023-06-22T02:36:21;10.65;;;7.97;;
17169;SDS011;8700;48.222;16.342;2023-06-22T02:39:43;9.40;;;7.78;;
17169;SDS011;8700;48.222;16.342;2023-06-22T02:43:05;11.35;;;7.95;;
17169;SDS011;8700;48.222;16.342;2023-06-22T02:46:26;8.75;;;7.22;;
17169;SDS011;8700;48.222;16.342;2023-06-22T02:49:50;7.85;;;7.05;;
17169;SDS011;8700;48.222;16.342;2023-06-22T02:53:12;9.85;;;7.97;;
17169;SDS011;8700;48.222;16.342;2023-06-22T02:56:34;10.98;;;8.45;;
17169;SDS011;8700;48.222;16.342;2023-06-22T02:59:56;10.50;;;7.72;;
17169;SDS011;8700;48.222;16.342;2023-06-22T03:03:17;8.50;;;7.70;;
17169;SDS011;8700;48.222;16.342;2023-06-22T03:06:39;13.25;;;7.82;;
17169;SDS011;8700;48.222;16.342;2023-06-22T03:10:03;10.93;;;8.30;;
17169;SDS011;8700;48.222;16.342;2023-06-22T03:13:26;11.85;;;7.97;;
17169;SDS011;8700;48.222;16.342;2023-06-22T03:16:48;8.63;;;7.78;;
17169;SDS011;8700;48.222;16.342;2023-06-22T03:20:10;9.32;;;8.40;;
17169;SDS011;8700;48.222;16.342;2023-06-22T03:23:31;9.55;;;8.65;;
17169;SDS011;8700;48.222;16.342;2023-06-22T03:26:54;10.63;;;8.40;;
17169;SDS011;8700;48.222;16.342;2023-06-22T03:30:16;11.95;;;8.90;;
17169;SDS011;8700;48.222;16.342;2023-06-22T03:33:37;9.05;;;8.10;;
17169;SDS011;8700;48.222;16.342;2023-06-22T03:37:01;10.40;;;8.20;;
17169;SDS011;8700;48.222;16.342;2023-06-22T03:40:23;10.38;;;9.15;;
17169;SDS011;8700;48.222;16.342;2023-06-22T03:43:46;12.00;;;9.60;;
17169;SDS011;8700;48.222;16.342;2023-06-22T03:47:07;9.40;;;8.45;;
17169;SDS011;8700;48.222;16.342;2023-06-22T03:50:29;10.63;;;7.85;;
17169;SDS011;8700;48.222;16.342;2023-06-22T03:53:50;11.55;;;8.23;;
17169;SDS011;8700;48.222;16.342;2023-06-22T03:57:11;10.55;;;8.07;;
17169;SDS011;8700;48.222;16.342;2023-06-22T04:00:34;12.43;;;8.45;;
17169;SDS011;8700;48.222;16.342;2023-06-22T04:03:55;10.23;;;8.45;;
17169;SDS011;8700;48.222;16.342;2023-06-22T04:07:20;8.82;;;7.82;;
17169;SDS011;8700;48.222;16.342;2023-06-22T04:10:41;10.07;;;8.05;;
17169;SDS011;8700;48.222;16.342;2023-06-22T04:14:03;11.90;;;8.40;;
17169;SDS011;8700;48.222;16.342;2023-06-22T04:17:27;10.65;;;8.70;;
17169;SDS011;8700;48.222;16.342;2023-06-22T04:20:49;13.10;;;9.52;;
17169;SDS011;8700;48.222;16.342;2023-06-22T04:24:10;12.50;;;8.60;;
17169;SDS011;8700;48.222;16.342;2023-06-22T04:27:32;13.57;;;8.80;;
17169;SDS011;8700;48.222;16.342;2023-06-22T04:30:56;13.70;;;8.90;;
17169;SDS011;8700;48.222;16.342;2023-06-22T04:34:23;11.60;;;8.77;;
17169;SDS011;8700;48.222;16.342;2023-06-22T04:37:45;12.85;;;8.27;;
17169;SDS011;8700;48.222;16.342;2023-06-22T04:41:07;8.02;;;7.22;;
17169;SDS011;8700;48.222;16.342;2023-06-22T04:44:33;11.20;;;8.02;;
17169;SDS011;8700;48.222;16.342;2023-06-22T04:47:55;14.02;;;8.80;;
17169;SDS011;8700;48.222;16.342;2023-06-22T04:51:17;10.23;;;6.90;;
17169;SDS011;8700;48.222;16.342;2023-06-22T04:54:41;11.48;;;9.02;;
17169;SDS011;8700;48.222;16.342;2023-06-22T04:58:06;9.32;;;7.45;;
17169;SDS011;8700;48.222;16.342;2023-06-22T05:01:29;14.68;;;8.40;;
17169;SDS011;8700;48.222;16.342;2023-06-22T05:04:51;9.32;;;8.25;;
17169;SDS011;8700;48.222;16.342;2023-06-22T05:08:17;9.48;;;8.48;;
17169;SDS011;8700;48.222;16.342;2023-06-22T05:11:39;9.95;;;8.75;;
17169;SDS011;8700;48.222;16.342;2023-06-22T05:15:00;11.35;;;8.05;;
17169;SDS011;8700;48.222;16.342;2023-06-22T05:18:21;8.75;;;7.57;;
17169;SDS011;8700;48.222;16.342;2023-06-22T05:21:43;11.02;;;7.07;;
17169;SDS011;8700;48.222;16.342;2023-06-22T05:25:08;10.40;;;8.13;;
17169;SDS011;8700;48.222;16.342;2023-06-22T05:28:31;11.80;;;9.55;;
17169;SDS011;8700;48.222;16.342;2023-06-22T05:31:53;18.20;;;8.32;;
17169;SDS011;8700;48.222;16.342;2023-06-22T05:35:15;12.18;;;7.80;;
17169;SDS011;8700;48.222;16.342;2023-06-22T05:38:36;9.27;;;8.07;;
17169;SDS011;8700;48.222;16.342;2023-06-22T05:41:59;9.65;;;6.95;;
17169;SDS011;8700;48.222;16.342;2023-06-22T05:45:20;11.75;;;8.40;;
17169;SDS011;8700;48.222;16.342;2023-06-22T05:48:42;12.95;;;7.88;;
17169;SDS011;8700;48.222;16.342;2023-06-22T05:52:03;14.02;;;8.05;;
17169;SDS011;8700;48.222;16.342;2023-06-22T05:55:25;14.48;;;8.93;;
17169;SDS011;8700;48.222;16.342;2023-06-22T05:58:48;11.55;;;7.75;;
17169;SDS011;8700;48.222;16.342;2023-06-22T06:02:09;16.60;;;9.57;;
17169;SDS011;8700;48.222;16.342;2023-06-22T06:05:31;11.90;;;8.65;;
17169;SDS011;8700;48.222;16.342;2023-06-22T06:08:53;19.77;;;8.10;;
17169;SDS011;8700;48.222;16.342;2023-06-22T06:12:14;13.60;;;8.30;;
17169;SDS011;8700;48.222;16.342;2023-06-22T06:15:37;10.48;;;7.55;;
17169;SDS011;8700;48.222;16.342;2023-06-22T06:18:59;12.75;;;8.93;;
17169;SDS011;8700;48.222;16.342;2023-06-22T06:22:20;10.25;;;9.18;;
17169;SDS011;8700;48.222;16.342;2023-06-22T06:25:42;14.63;;;9.65;;
17169;SDS011;8700;48.222;16.342;2023-06-22T06:29:04;13.23;;;10.05;;
17169;SDS011;8700;48.222;16.342;2023-06-22T06:32:26;17.95;;;9.65;;
17169;SDS011;8700;48.222;16.342;2023-06-22T06:35:48;13.30;;;10.10;;
17169;SDS011;8700;48.222;16.342;2023-06-22T06:39:09;21.02;;;11.65;;
17169;SDS011;8700;48.222;16.342;2023-06-22T06:42:30;16.55;;;12.32;;
17169;SDS011;8700;48.222;16.342;2023-06-22T06:45:52;14.02;;;12.13;;
17169;SDS011;8700;48.222;16.342;2023-06-22T06:49:14;15.32;;;12.25;;
17169;SDS011;8700;48.222;16.342;2023-06-22T06:52:36;19.92;;;13.80;;
17169;SDS011;8700;48.222;16.342;2023-06-22T06:55:57;17.67;;;15.80;;
17169;SDS011;8700;48.222;16.342;2023-06-22T06:59:18;18.70;;;16.90;;
17169;SDS011;8700;48.222;16.342;2023-06-22T07:02:40;19.65;;;17.63;;
17169;SDS011;8700;48.222;16.342;2023-06-22T07:06:04;23.13;;;19.65;;
17169;SDS011;8700;48.222;16.342;2023-06-22T07:09:26;29.38;;;19.23;;
17169;SDS011;8700;48.222;16.342;2023-06-22T07:12:47;21.60;;;17.52;;
17169;SDS011;8700;48.222;16.342;2023-06-22T07:16:09;26.25;;;19.80;;
17169;SDS011;8700;48.222;16.342;2023-06-22T07:19:30;20.60;;;18.73;;
17169;SDS011;8700;48.222;16.342;2023-06-22T07:22:55;21.48;;;16.67;;
17169;SDS011;8700;48.222;16.342;2023-06-22T07:26:17;21.05;;;17.10;;
17169;SDS011;8700;48.222;16.342;2023-06-22T07:29:39;17.15;;;15.23;;
17169;SDS011;8700;48.222;16.342;2023-06-22T07:33:02;20.70;;;14.88;;
17169;SDS011;8700;48.222;16.342;2023-06-22T07:36:27;15.38;;;13.60;;
17169;SDS011;8700;48.222;16.342;2023-06-22T07:39:52;19.27;;;14.32;;
17169;SDS011;8700;48.222;16.342;2023-06-22T07:43:17;15.50;;;13.88;;
17169;SDS011;8700;48.222;16.342;2023-06-22T07:46:38;12.23;;;11.02;;
17169;SDS011;8700;48.222;16.342;2023-06-22T07:50:00;14.02;;;11.82;;
17169;SDS011;8700;48.222;16.342;2023-06-22T07:53:22;18.60;;;12.30;;
17169;SDS011;8700;48.222;16.342;2023-06-22T07:56:45;15.75;;;12.88;;
17169;SDS011;8700;48.222;16.342;2023-06-22T08:00:07;14.10;;;12.77;;
17169;SDS011;8700;48.222;16.342;2023-06-22T08:03:33;14.18;;;11.77;;
17169;SDS011;8700;48.222;16.342;2023-06-22T08:06:54;16.20;;;14.07;;
17169;SDS011;8700;48.222;16.342;2023-06-22T08:10:16;16.02;;;14.38;;
17169;SDS011;8700;48.222;16.342;2023-06-22T08:13:39;15.25;;;13.68;;
17169;SDS011;8700;48.222;16.342;2023-06-22T08:17:00;14.52;;;12.30;;
17169;SDS011;8700;48.222;16.342;2023-06-22T08:20:22;17.10;;;14.80;;
17169;SDS011;8700;48.222;16.342;2023-06-22T08:23:43;17.70;;;14.90;;
17169;SDS011;8700;48.222;16.342;2023-06-22T08:27:06;19.63;;;15.13;;
17169;SDS011;8700;48.222;16.342;2023-06-22T08:30:30;13.55;;;11.82;;
17169;SDS011;8700;48.222;16.342;2023-06-22T08:33:52;15.40;;;13.20;;
17169;SDS011;8700;48.222;16.342;2023-06-22T08:37:13;18.83;;;13.93;;
17169;SDS011;8700;48.222;16.342;2023-06-22T08:40:34;13.95;;;12.50;;
17169;SDS011;8700;48.222;16.342;2023-06-22T08:43:56;14.10;;;12.60;;
17169;SDS011;8700;48.222;16.342;2023-06-22T08:47:19;15.32;;;12.70;;
17169;SDS011;8700;48.222;16.342;2023-06-22T08:50:41;13.25;;;11.98;;
17169;SDS011;8700;48.222;16.342;2023-06-22T08:54:02;15.60;;;12.40;;
17169;SDS011;8700;48.222;16.342;2023-06-22T08:57:24;15.93;;;12.43;;
17169;SDS011;8700;48.222;16.342;2023-06-22T09:00:45;16.08;;;14.02;;
17169;SDS011;8700;48.222;16.342;2023-06-22T09:04:08;12.80;;;11.70;;
17169;SDS011;8700;48.222;16.342;2023-06-22T09:07:30;12.52;;;11.13;;
17169;SDS011;8700;48.222;16.342;2023-06-22T09:10:54;13.05;;;11.65;;
17169;SDS011;8700;48.222;16.342;2023-06-22T09:14:15;13.20;;;11.77;;
17169;SDS011;8700;48.222;16.342;2023-06-22T09:17:37;12.68;;;10.55;;
17169;SDS011;8700;48.222;16.342;2023-06-22T09:21:00;15.48;;;10.82;;
17169;SDS011;8700;48.222;16.342;2023-06-22T09:24:22;12.18;;;10.88;;
17169;SDS011;8700;48.222;16.342;2023-06-22T09:27:44;13.30;;;10.68;;
17169;SDS011;8700;48.222;16.342;2023-06-22T09:31:05;11.70;;;10.48;;
17169;SDS011;8700;48.222;16.342;2023-06-22T09:34:26;12.23;;;10.95;;
17169;SDS011;8700;48.222;16.342;2023-06-22T09:37:49;11.02;;;9.88;;
17169;SDS011;8700;48.222;16.342;2023-06-22T09:41:10;14.20;;;10.93;;
17169;SDS011;8700;48.222;16.342;2023-06-22T09:44:32;12.52;;;11.38;;
17169;SDS011;8700;48.222;16.342;2023-06-22T09:47:53;16.10;;;11.93;;
17169;SDS011;8700;48.222;16.342;2023-06-22T09:51:15;11.93;;;10.85;;
17169;SDS011;8700;48.222;16.342;2023-06-22T09:54:37;15.32;;;11.68;;
17169;SDS011;8700;48.222;16.342;2023-06-22T09:57:59;13.25;;;11.10;;
17169;SDS011;8700;48.222;16.342;2023-06-22T10:01:20;11.95;;;10.88;;
17169;SDS011;8700;48.222;16.342;2023-06-22T10:04:42;12.13;;;10.93;;
17169;SDS011;8700;48.222;16.342;2023-06-22T10:08:03;11.45;;;10.27;;
17169;SDS011;8700;48.222;16.342;2023-06-22T10:11:28;13.45;;;10.90;;
17169;SDS011;8700;48.222;16.342;2023-06-22T10:14:50;11.57;;;10.55;;
17169;SDS011;8700;48.222;16.342;2023-06-22T10:18:11;11.23;;;10.18;;
17169;SDS011;8700;48.222;16.342;2023-06-22T10:21:33;11.00;;;9.82;;
17169;SDS011;8700;48.222;16.342;2023-06-22T10:24:54;10.38;;;9.40;;
17169;SDS011;8700;48.222;16.342;2023-06-22T10:28:17;11.38;;;10.07;;
17169;SDS011;8700;48.222;16.342;2023-06-22T10:31:38;10.95;;;9.85;;
17169;SDS011;8700;48.222;16.342;2023-06-22T10:35:00;11.45;;;10.00;;
17169;SDS011;8700;48.222;16.342;2023-06-22T10:38:21;10.90;;;9.85;;
17169;SDS011;8700;48.222;16.342;2023-06-22T10:41:43;13.07;;;9.55;;
17169;SDS011;8700;48.222;16.342;2023-06-22T10:45:06;8.85;;;7.03;;
17169;SDS011;8700;48.222;16.342;2023-06-22T10:48:28;11.55;;;7.75;;
17169;SDS011;8700;48.222;16.342;2023-06-22T10:51:49;9.80;;;6.85;;
17169;SDS011;8700;48.222;16.342;2023-06-22T10:55:11;9.68;;;6.68;;
17169;SDS011;8700;48.222;16.342;2023-06-22T10:58:32;8.45;;;5.68;;
17169;SDS011;8700;48.222;16.342;2023-06-22T11:01:55;6.07;;;5.13;;
17169;SDS011;8700;48.222;16.342;2023-06-22T11:05:17;8.15;;;5.78;;
17169;SDS011;8700;48.222;16.342;2023-06-22T11:08:38;6.93;;;6.25;;
17169;SDS011;8700;48.222;16.342;2023-06-22T11:11:59;7.85;;;5.97;;
17169;SDS011;8700;48.222;16.342;2023-06-22T11:15:21;10.20;;;7.20;;
17169;SDS011;8700;48.222;16.342;2023-06-22T11:18:44;6.40;;;5.80;;
17169;SDS011;8700;48.222;16.342;2023-06-22T11:22:05;7.97;;;6.45;;
17169;SDS011;8700;48.222;16.342;2023-06-22T11:25:26;9.80;;;7.40;;
17169;SDS011;8700;48.222;16.342;2023-06-22T11:28:48;12.07;;;8.63;;
17169;SDS011;8700;48.222;16.342;2023-06-22T11:32:09;10.10;;;9.07;;
17169;SDS011;8700;48.222;16.342;2023-06-22T11:35:33;11.40;;;9.10;;
17169;SDS011;8700;48.222;16.342;2023-06-22T11:38:54;10.73;;;9.60;;
17169;SDS011;8700;48.222;16.342;2023-06-22T11:42:15;15.13;;;9.90;;
17169;SDS011;8700;48.222;16.342;2023-06-22T11:45:37;9.70;;;8.63;;
17169;SDS011;8700;48.222;16.342;2023-06-22T11:48:58;14.70;;;9.02;;
17169;SDS011;8700;48.222;16.342;2023-06-22T11:52:21;10.80;;;8.77;;
17169;SDS011;8700;48.222;16.342;2023-06-22T11:55:42;9.52;;;8.23;;
17169;SDS011;8700;48.222;16.342;2023-06-22T11:59:04;14.13;;;8.85;;
17169;SDS011;8700;48.222;16.342;2023-06-22T12:02:25;11.05;;;7.95;;
17169;SDS011;8700;48.222;16.342;2023-06-22T12:05:46;14.70;;;8.73;;
17169;SDS011;8700;48.222;16.342;2023-06-22T12:09:10;12.25;;;8.20;;
17169;SDS011;8700;48.222;16.342;2023-06-22T12:12:32;9.18;;;7.55;;
17169;SDS011;8700;48.222;16.342;2023-06-22T12:15:54;9.18;;;6.95;;
17169;SDS011;8700;48.222;16.342;2023-06-22T12:19:15;10.27;;;7.47;;
17169;SDS011;8700;48.222;16.342;2023-06-22T12:22:36;7.95;;;7.25;;
17169;SDS011;8700;48.222;16.342;2023-06-22T12:25:59;13.32;;;8.02;;
17169;SDS011;8700;48.222;16.342;2023-06-22T12:29:21;9.13;;;6.68;;
17169;SDS011;8700;48.222;16.342;2023-06-22T12:32:42;9.32;;;7.60;;
17169;SDS011;8700;48.222;16.342;2023-06-22T12:36:04;7.38;;;6.22;;
17169;SDS011;8700;48.222;16.342;2023-06-22T12:39:25;10.35;;;6.60;;
17169;SDS011;8700;48.222;16.342;2023-06-22T12:42:48;9.35;;;6.65;;
17169;SDS011;8700;48.222;16.342;2023-06-22T12:46:09;8.52;;;6.15;;
17169;SDS011;8700;48.222;16.342;2023-06-22T12:49:31;7.53;;;5.80;;
17169;SDS011;8700;48.222;16.342;2023-06-22T12:52:52;10.88;;;6.53;;
17169;SDS011;8700;48.222;16.342;2023-06-22T12:56:14;8.43;;;6.82;;
17169;SDS011;8700;48.222;16.342;2023-06-22T12:59:36;7.47;;;6.22;;
17169;SDS011;8700;48.222;16.342;2023-06-22T13:02:58;9.95;;;7.07;;
17169;SDS011;8700;48.222;16.342;2023-06-22T13:06:19;8.02;;;6.68;;
17169;SDS011;8700;48.222;16.342;2023-06-22T13:09:40;8.52;;;7.03;;
17169;SDS011;8700;48.222;16.342;2023-06-22T13:13:01;8.00;;;6.75;;
17169;SDS011;8700;48.222;16.342;2023-06-22T13:16:24;9.20;;;7.38;;
17169;SDS011;8700;48.222;16.342;2023-06-22T13:19:46;6.75;;;6.15;;
17169;SDS011;8700;48.222;16.342;2023-06-22T13:23:10;20.13;;;18.40;;
17169;SDS011;8700;48.222;16.342;2023-06-22T13:26:32;8.35;;;7.55;;
17169;SDS011;8700;48.222;16.342;2023-06-22T13:29:53;9.52;;;7.28;;
17169;SDS011;8700;48.222;16.342;2023-06-22T13:33:16;9.35;;;6.70;;
17169;SDS011;8700;48.222;16.342;2023-06-22T13:36:38;11.27;;;8.30;;
17169;SDS011;8700;48.222;16.342;2023-06-22T13:39:59;11.98;;;7.82;;
17169;SDS011;8700;48.222;16.342;2023-06-22T13:43:23;12.18;;;8.05;;
17169;SDS011;8700;48.222;16.342;2023-06-22T13:46:44;12.32;;;8.75;;
17169;SDS011;8700;48.222;16.342;2023-06-22T13:50:07;16.70;;;10.10;;
17169;SDS011;8700;48.222;16.342;2023-06-22T13:53:29;10.90;;;7.70;;
17169;SDS011;8700;48.222;16.342;2023-06-22T13:56:51;9.43;;;7.80;;
17169;SDS011;8700;48.222;16.342;2023-06-22T14:00:13;8.82;;;7.82;;
17169;SDS011;8700;48.222;16.342;2023-06-22T14:03:34;10.00;;;8.27;;
17169;SDS011;8700;48.222;16.342;2023-06-22T14:06:57;8.88;;;7.95;;
17169;SDS011;8700;48.222;16.342;2023-06-22T14:10:19;9.82;;;8.63;;
17169;SDS011;8700;48.222;16.342;2023-06-22T14:13:40;10.02;;;8.30;;
17169;SDS011;8700;48.222;16.342;2023-06-22T14:17:03;17.80;;;9.55;;
17169;SDS011;8700;48.222;16.342;2023-06-22T14:20:25;10.95;;;8.68;;
17169;SDS011;8700;48.222;16.342;2023-06-22T14:23:47;9.15;;;8.40;;
17169;SDS011;8700;48.222;16.342;2023-06-22T14:27:09;10.25;;;9.27;;
17169;SDS011;8700;48.222;16.342;2023-06-22T14:30:31;9.43;;;8.57;;
17169;SDS011;8700;48.222;16.342;2023-06-22T14:33:55;11.88;;;8.13;;
17169;SDS011;8700;48.222;16.342;2023-06-22T14:37:16;10.13;;;9.07;;
17169;SDS011;8700;48.222;16.342;2023-06-22T14:40:39;13.50;;;8.95;;
17169;SDS011;8700;48.222;16.342;2023-06-22T14:44:00;9.98;;;8.65;;
17169;SDS011;8700;48.222;16.342;2023-06-22T14:47:22;11.05;;;9.00;;
17169;SDS011;8700;48.222;16.342;2023-06-22T14:50:46;11.43;;;10.27;;
17169;SDS011;8700;48.222;16.342;2023-06-22T14:54:08;12.35;;;9.27;;
17169;SDS011;8700;48.222;16.342;2023-06-22T14:57:30;12.13;;;9.23;;
17169;SDS011;8700;48.222;16.342;2023-06-22T15:00:52;16.80;;;9.23;;
17169;SDS011;8700;48.222;16.342;2023-06-22T15:04:13;12.02;;;10.80;;
17169;SDS011;8700;48.222;16.342;2023-06-22T15:07:35;11.98;;;9.48;;
17169;SDS011;8700;48.222;16.342;2023-06-22T15:10:58;11.85;;;9.02;;
17169;SDS011;8700;48.222;16.342;2023-06-22T15:14:22;10.75;;;8.45;;
17169;SDS011;8700;48.222;16.342;2023-06-22T15:17:44;13.73;;;8.68;;
17169;SDS011;8700;48.222;16.342;2023-06-22T15:21:05;11.75;;;10.23;;
17169;SDS011;8700;48.222;16.342;2023-06-22T15:24:26;14.20;;;9.57;;
17169;SDS011;8700;48.222;16.342;2023-06-22T15:27:48;12.45;;;10.30;;
17169;SDS011;8700;48.222;16.342;2023-06-22T15:31:13;10.77;;;9.05;;
17169;SDS011;8700;48.222;16.342;2023-06-22T15:34:34;10.90;;;8.90;;
17169;SDS011;8700;48.222;16.342;2023-06-22T15:37:56;11.63;;;10.52;;
17169;SDS011;8700;48.222;16.342;2023-06-22T15:41:18;14.13;;;10.20;;
17169;SDS011;8700;48.222;16.342;2023-06-22T15:44:40;11.02;;;8.68;;
17169;SDS011;8700;48.222;16.342;2023-06-22T15:48:03;11.48;;;10.32;;
17169;SDS011;8700;48.222;16.342;2023-06-22T15:51:25;21.55;;;19.48;;
17169;SDS011;8700;48.222;16.342;2023-06-22T15:54:47;10.75;;;9.70;;
17169;SDS011;8700;48.222;16.342;2023-06-22T15:58:10;11.23;;;10.23;;
17169;SDS011;8700;48.222;16.342;2023-06-22T16:01:32;11.00;;;10.00;;
17169;SDS011;8700;48.222;16.342;2023-06-22T16:04:55;12.82;;;11.25;;
17169;SDS011;8700;48.222;16.342;2023-06-22T16:08:18;17.50;;;10.63;;
17169;SDS011;8700;48.222;16.342;2023-06-22T16:11:39;12.45;;;11.00;;
17169;SDS011;8700;48.222;16.342;2023-06-22T16:15:01;11.82;;;10.57;;
17169;SDS011;8700;48.222;16.342;2023-06-22T16:18:23;14.20;;;10.95;;
17169;SDS011;8700;48.222;16.342;2023-06-22T16:21:45;11.32;;;10.23;;
17169;SDS011;8700;48.222;16.342;2023-06-22T16:25:07;12.50;;;11.30;;
17169;SDS011;8700;48.222;16.342;2023-06-22T16:28:29;15.40;;;10.13;;
17169;SDS011;8700;48.222;16.342;2023-06-22T16:31:50;12.73;;;11.45;;
17169;SDS011;8700;48.222;16.342;2023-06-22T16:35:11;13.07;;;11.90;;
17169;SDS011;8700;48.222;16.342;2023-06-22T16:38:36;12.52;;;11.23;;
17169;SDS011;8700;48.222;16.342;2023-06-22T16:41:58;12.55;;;10.82;;
17169;SDS011;8700;48.222;16.342;2023-06-22T16:45:19;12.65;;;11.20;;
17169;SDS011;8700;48.222;16.342;2023-06-22T16:48:41;12.80;;;11.68;;
17169;SDS011;8700;48.222;16.342;2023-06-22T16:52:10;14.20;;;11.65;;
17169;SDS011;8700;48.222;16.342;2023-06-22T16:55:32;18.38;;;15.55;;
17169;SDS011;8700;48.222;16.342;2023-06-22T16:58:55;12.93;;;11.80;;
17169;SDS011;8700;48.222;16.342;2023-06-22T17:02:18;13.95;;;12.27;;
17169;SDS011;8700;48.222;16.342;2023-06-22T17:05:40;14.20;;;12.60;;
17169;SDS011;8700;48.222;16.342;2023-06-22T17:09:02;13.65;;;12.25;;
17169;SDS011;8700;48.222;16.342;2023-06-22T17:12:26;14.07;;;12.77;;
17169;SDS011;8700;48.222;16.342;2023-06-22T17:15:48;18.00;;;16.45;;
17169;SDS011;8700;48.222;16.342;2023-06-22T17:19:16;15.70;;;14.40;;
17169;SDS011;8700;48.222;16.342;2023-06-22T17:22:37;13.00;;;11.40;;
17169;SDS011;8700;48.222;16.342;2023-06-22T17:26:02;15.27;;;13.43;;
17169;SDS011;8700;48.222;16.342;2023-06-22T17:29:31;15.52;;;12.55;;
17169;SDS011;8700;48.222;16.342;2023-06-22T17:32:54;18.33;;;12.20;;
17169;SDS011;8700;48.222;16.342;2023-06-22T17:36:15;14.45;;;12.07;;
17169;SDS011;8700;48.222;16.342;2023-06-22T17:39:37;13.23;;;11.98;;
17169;SDS011;8700;48.222;16.342;2023-06-22T17:43:05;15.15;;;13.00;;
17169;SDS011;8700;48.222;16.342;2023-06-22T17:46:34;13.65;;;12.45;;
17169;SDS011;8700;48.222;16.342;2023-06-22T17:50:05;16.23;;;13.50;;
17169;SDS011;8700;48.222;16.342;2023-06-22T17:53:27;14.10;;;12.05;;
17169;SDS011;8700;48.222;16.342;2023-06-22T17:56:49;14.63;;;13.18;;
17169;SDS011;8700;48.222;16.342;2023-06-22T18:00:11;13.07;;;11.75;;
17169;SDS011;8700;48.222;16.342;2023-06-22T18:03:34;14.60;;;13.20;;
17169;SDS011;8700;48.222;16.342;2023-06-22T18:06:57;14.63;;;13.13;;
17169;SDS011;8700;48.222;16.342;2023-06-22T18:10:19;15.00;;;13.52;;
17169;SDS011;8700;48.222;16.342;2023-06-22T18:13:41;17.80;;;14.23;;
17169;SDS011;8700;48.222;16.342;2023-06-22T18:17:04;16.30;;;14.10;;
17169;SDS011;8700;48.222;16.342;2023-06-22T18:20:27;20.00;;;14.07;;
17169;SDS011;8700;48.222;16.342;2023-06-22T18:23:49;15.73;;;14.10;;
17169;SDS011;8700;48.222;16.342;2023-06-22T18:27:11;14.93;;;13.32;;
17169;SDS011;8700;48.222;16.342;2023-06-22T18:30:35;14.65;;;13.30;;
17169;SDS011;8700;48.222;16.342;2023-06-22T18:33:57;17.25;;;15.65;;
17169;SDS011;8700;48.222;16.342;2023-06-22T18:37:20;15.73;;;14.15;;
17169;SDS011;8700;48.222;16.342;2023-06-22T18:40:44;16.33;;;14.57;;
17169;SDS011;8700;48.222;16.342;2023-06-22T18:44:11;15.13;;;13.63;;
17169;SDS011;8700;48.222;16.342;2023-06-22T18:47:38;15.38;;;14.07;;
17169;SDS011;8700;48.222;16.342;2023-06-22T18:51:09;16.25;;;14.68;;
17169;SDS011;8700;48.222;16.342;2023-06-22T18:54:35;17.05;;;15.32;;
17169;SDS011;8700;48.222;16.342;2023-06-22T18:58:11;13.73;;;12.43;;
17169;SDS011;8700;48.222;16.342;2023-06-22T19:01:34;15.52;;;13.88;;
17169;SDS011;8700;48.222;16.342;2023-06-22T19:05:04;16.25;;;14.55;;
17169;SDS011;8700;48.222;16.342;2023-06-22T19:08:27;15.85;;;13.73;;
17169;SDS011;8700;48.222;16.342;2023-06-22T19:12:31;15.85;;;13.30;;
17169;SDS011;8700;48.222;16.342;2023-06-22T19:15:53;15.55;;;13.90;;
17169;SDS011;8700;48.222;16.342;2023-06-22T19:19:18;15.25;;;13.68;;
17169;SDS011;8700;48.222;16.342;2023-06-22T19:22:43;15.25;;;13.70;;
17169;SDS011;8700;48.222;16.342;2023-06-22T19:26:06;16.23;;;14.65;;
17169;SDS011;8700;48.222;16.342;2023-06-22T19:29:30;17.02;;;13.65;;
17169;SDS011;8700;48.222;16.342;2023-06-22T19:32:51;15.90;;;14.27;;
17169;SDS011;8700;48.222;16.342;2023-06-22T19:36:13;15.73;;;12.93;;
17169;SDS011;8700;48.222;16.342;2023-06-22T19:39:40;16.58;;;14.00;;
17169;SDS011;8700;48.222;16.342;2023-06-22T19:43:02;18.95;;;14.07;;
17169;SDS011;8700;48.222;16.342;2023-06-22T19:46:28;16.98;;;13.50;;
17169;SDS011;8700;48.222;16.342;2023-06-22T19:49:57;16.42;;;14.90;;
17169;SDS011;8700;48.222;16.342;2023-06-22T19:53:20;15.85;;;14.40;;
17169;SDS011;8700;48.222;16.342;2023-06-22T19:56:43;16.83;;;15.27;;